createdAt,value
2022-09-10T00:01:59.206Z,100223.06
2022-09-10T00:04:25.749Z,100228.31
2022-09-10T00:06:52.313Z,100229.66
2022-09-10T00:09:19.131Z,100223.41
2022-09-10T00:11:46.423Z,100220.50
2022-09-10T00:14:17.144Z,100226.38
2022-09-10T00:16:44.424Z,100220.34
2022-09-10T00:19:11.500Z,100216.13
2022-09-10T00:21:38.141Z,100226.03
2022-09-10T00:24:05.466Z,100228.53
2022-09-10T00:26:39.141Z,100231.22
2022-09-10T00:29:08.037Z,100218.78
2022-09-10T00:31:35.594Z,100228.81
2022-09-10T00:34:02.782Z,100217.28
2022-09-10T00:36:33.013Z,100217.97
2022-09-10T00:39:04.454Z,100222.72
2022-09-10T00:41:31.021Z,100214.66
2022-09-10T00:44:04.049Z,100228.94
2022-09-10T00:46:48.220Z,100223.25
2022-09-10T00:49:18.678Z,100223.25
2022-09-10T00:51:47.275Z,100221.41
2022-09-10T00:54:17.691Z,100220.72
2022-09-10T00:56:45.327Z,100222.25
2022-09-10T00:59:16.249Z,100226.59
2022-09-10T01:01:43.116Z,100224.41
2022-09-10T01:04:10.601Z,100226.63
2022-09-10T01:06:41.960Z,100225.19
2022-09-10T01:09:09.388Z,100226.25
2022-09-10T01:12:08.786Z,100225.38
2022-09-10T01:14:54.406Z,100230.78
2022-09-10T01:17:45.631Z,100226.75
2022-09-10T01:20:30.744Z,100232.47
2022-09-10T01:23:41.808Z,100232.22
2022-09-10T01:26:31.086Z,100234.44
2022-09-10T01:29:08.430Z,100236.22
2022-09-10T01:31:41.014Z,100250.72
2022-09-10T01:34:18.705Z,100247.81
2022-09-10T01:36:48.165Z,100239.91
2022-09-10T01:39:18.150Z,100236.69
2022-09-10T01:41:45.188Z,100238.63
2022-09-10T01:44:48.211Z,100236.66
2022-09-10T01:47:43.986Z,100235.91
2022-09-10T01:50:36.278Z,100237.97
2022-09-10T01:53:14.766Z,100235.28
2022-09-10T01:56:27.764Z,100246.88
2022-09-10T01:59:03.887Z,100250.09
2022-09-10T02:01:45.639Z,100247.72
2022-09-10T02:04:15.084Z,100251.09
2022-09-10T02:06:46.615Z,100252.09
2022-09-10T02:09:15.136Z,100250.88
2022-09-10T02:11:56.472Z,100245.72
2022-09-10T02:14:23.137Z,100240.50
2022-09-10T02:16:55.391Z,100245.22
2022-09-10T02:19:22.021Z,100245.03
2022-09-10T02:21:48.877Z,100242.00
2022-09-10T02:24:15.533Z,100244.25
2022-09-10T02:26:44.165Z,100243.34
2022-09-10T02:29:13.748Z,100246.72
2022-09-10T02:31:41.887Z,100249.75
2022-09-10T02:34:08.394Z,100244.00
2022-09-10T02:36:35.854Z,100246.06
2022-09-10T02:39:04.720Z,100244.59
2022-09-10T02:41:33.946Z,100246.88
2022-09-10T02:44:04.295Z,100257.94
2022-09-10T02:46:31.109Z,100258.16
2022-09-10T02:48:57.550Z,100256.50
2022-09-10T02:51:25.137Z,100244.13
2022-09-10T02:53:51.587Z,100251.91
2022-09-10T02:56:19.616Z,100248.53
2022-09-10T02:58:46.070Z,100252.44
2022-09-10T03:01:20.633Z,100256.72
2022-09-10T03:03:58.096Z,100250.34
2022-09-10T03:06:26.006Z,100247.94
2022-09-10T03:08:55.200Z,100249.66
2022-09-10T03:11:27.204Z,100257.31
2022-09-10T03:13:54.307Z,100252.41
2022-09-10T03:16:21.308Z,100251.72
2022-09-10T03:18:47.836Z,100255.44
2022-09-10T03:21:20.152Z,100259.03
2022-09-10T03:23:49.483Z,100252.34
2022-09-10T03:26:18.326Z,100254.50
2022-09-10T03:28:45.132Z,100260.38
2022-09-10T03:31:13.556Z,100259.66
2022-09-10T03:33:41.074Z,100255.28
2022-09-10T03:36:13.223Z,100267.09
2022-09-10T03:38:40.630Z,100252.81
2022-09-10T03:41:07.478Z,100260.22
2022-09-10T03:43:35.209Z,100258.28
2022-09-10T03:46:02.529Z,100261.94
2022-09-10T03:48:29.799Z,100268.88
2022-09-10T03:50:56.350Z,100261.09
2022-09-10T03:53:23.765Z,100266.09
2022-09-10T03:55:50.688Z,100270.25
2022-09-10T03:58:18.285Z,100260.88
2022-09-10T04:00:46.113Z,100258.41
2022-09-10T04:03:14.301Z,100255.03
2022-09-10T04:05:43.954Z,100264.59
2022-09-10T04:08:12.002Z,100263.53
2022-09-10T04:10:39.749Z,100267.31
2022-09-10T04:13:06.755Z,100270.41
2022-09-10T04:15:33.883Z,100274.56
2022-09-10T04:18:00.274Z,100278.09
2022-09-10T04:20:27.079Z,100265.19
2022-09-10T04:22:54.093Z,100269.28
2022-09-10T04:25:21.152Z,100270.75
2022-09-10T04:27:48.982Z,100268.66
2022-09-10T04:30:16.247Z,100265.50
2022-09-10T04:32:42.711Z,100270.25
2022-09-10T04:35:09.290Z,100264.81
2022-09-10T04:37:35.730Z,100265.44
2022-09-10T04:40:02.644Z,100265.50
2022-09-10T04:42:31.729Z,100267.34
2022-09-10T04:44:59.125Z,100264.03
2022-09-10T04:47:26.040Z,100264.44
2022-09-10T04:49:52.553Z,100268.19
2022-09-10T04:52:22.613Z,100268.34
2022-09-10T04:54:49.368Z,100269.50
2022-09-10T04:57:16.104Z,100266.22
2022-09-10T04:59:42.546Z,100255.59
2022-09-10T05:02:09.294Z,100256.66
2022-09-10T05:04:36.203Z,100267.19
2022-09-10T05:07:02.592Z,100262.19
2022-09-10T05:09:31.267Z,100263.28
2022-09-10T05:11:58.210Z,100267.78
2022-09-10T05:14:25.408Z,100263.81
2022-09-10T05:16:51.883Z,100260.81
2022-09-10T05:19:18.358Z,100259.22
2022-09-10T05:21:45.461Z,100270.41
2022-09-10T05:24:12.485Z,100269.34
2022-09-10T05:26:39.943Z,100261.56
2022-09-10T05:29:06.696Z,100271.41
2022-09-10T05:31:35.151Z,100274.47
2022-09-10T05:34:01.874Z,100268.53
2022-09-10T05:36:28.856Z,100264.94
2022-09-10T05:38:55.278Z,100267.44
2022-09-10T05:41:21.963Z,100271.59
2022-09-10T05:43:48.762Z,100268.34
2022-09-10T05:46:15.740Z,100264.34
2022-09-10T05:48:42.602Z,100269.03
2022-09-10T05:51:09.387Z,100280.88
2022-09-10T05:53:35.858Z,100272.94
2022-09-10T05:56:02.437Z,100279.78
2022-09-10T05:58:30.057Z,100273.34
2022-09-10T06:00:58.027Z,100283.03
2022-09-10T06:03:24.659Z,100283.34
2022-09-10T06:05:51.374Z,100278.19
2022-09-10T06:08:21.004Z,100280.38
2022-09-10T06:11:02.501Z,100275.81
2022-09-10T06:13:28.897Z,100290.09
2022-09-10T06:15:55.374Z,100278.56
2022-09-10T06:18:22.146Z,100275.56
2022-09-10T06:20:49.217Z,100279.09
2022-09-10T06:23:16.722Z,100282.34
2022-09-10T06:25:44.467Z,100283.00
2022-09-10T06:28:12.534Z,100274.25
2022-09-10T06:30:39.429Z,100287.63
2022-09-10T06:33:05.891Z,100282.72
2022-09-10T06:35:33.240Z,100282.06
2022-09-10T06:37:59.632Z,100281.72
2022-09-10T06:40:29.178Z,100283.44
2022-09-10T06:42:55.693Z,100279.94
2022-09-10T06:45:22.156Z,100287.56
2022-09-10T06:50:35.323Z,100290.25
2022-09-10T06:53:01.731Z,100298.28
2022-09-10T06:55:28.167Z,100294.50
2022-09-10T06:57:54.655Z,100305.56
2022-09-10T07:00:22.125Z,100299.09
2022-09-10T07:02:50.540Z,100303.16
2022-09-10T07:05:16.943Z,100305.47
2022-09-10T07:07:43.393Z,100312.72
2022-09-10T07:10:09.821Z,100310.94
2022-09-10T07:12:36.260Z,100317.75
2022-09-10T07:15:02.706Z,100320.88
2022-09-10T07:17:31.903Z,100321.25
2022-09-10T07:19:58.604Z,100325.13
2022-09-10T07:22:25.068Z,100324.94
2022-09-10T07:24:51.456Z,100315.84
2022-09-10T07:27:18.258Z,100326.31
2022-09-10T07:29:44.646Z,100323.28
2022-09-10T07:32:13.487Z,100317.16
2022-09-10T07:34:40.287Z,100321.56
2022-09-10T07:37:07.359Z,100327.66
2022-09-10T07:39:33.841Z,100319.88
2022-09-10T07:42:00.454Z,100327.47
2022-09-10T07:44:27.164Z,100331.34
2022-09-10T07:46:53.822Z,100331.03
2022-09-10T07:49:20.757Z,100330.19
2022-09-10T07:51:47.307Z,100334.72
2022-09-10T07:54:16.864Z,100336.41
2022-09-10T07:56:43.352Z,100343.78
2022-09-10T07:59:09.837Z,100348.88
2022-09-10T08:01:37.728Z,100339.13
2022-09-10T08:04:05.347Z,100346.53
2022-09-10T08:06:32.227Z,100350.59
2022-09-10T08:08:59.978Z,100356.00
2022-09-10T08:11:26.494Z,100352.63
2022-09-10T08:13:54.036Z,100354.16
2022-09-10T08:16:25.261Z,100355.50
2022-09-10T08:18:51.789Z,100357.81
2022-09-10T08:21:19.219Z,100352.50
2022-09-10T08:23:57.359Z,100357.94
2022-09-10T08:26:25.438Z,100355.25
2022-09-10T08:28:53.843Z,100354.13
2022-09-10T08:31:20.288Z,100354.31
2022-09-10T08:33:51.629Z,100362.41
2022-09-10T08:36:19.098Z,100359.84
2022-09-10T08:38:46.205Z,100368.03
2022-09-10T08:41:35.644Z,100359.63
2022-09-10T08:44:16.061Z,100367.63
2022-09-10T08:46:49.805Z,100364.66
2022-09-10T08:49:24.818Z,100363.16
2022-09-10T08:51:57.065Z,100359.38
2022-09-10T08:54:34.555Z,100372.41
2022-09-10T08:57:02.229Z,100372.66
2022-09-10T08:59:33.372Z,100371.44
2022-09-10T09:02:31.907Z,100365.94
2022-09-10T09:05:12.294Z,100363.25
2022-09-10T09:07:40.145Z,100374.72
2022-09-10T09:10:24.694Z,100368.22
2022-09-10T09:12:51.125Z,100367.63
2022-09-10T09:15:31.509Z,100355.84
2022-09-10T09:18:20.461Z,100358.47
2022-09-10T09:20:56.352Z,100355.19
2022-09-10T09:24:02.663Z,100358.19
2022-09-10T09:26:35.855Z,100350.47
2022-09-10T09:29:05.894Z,100343.06
2022-09-10T09:31:37.956Z,100356.84
2022-09-10T09:34:26.417Z,100337.66
2022-09-10T09:36:55.061Z,100349.94
2022-09-10T09:39:30.599Z,100352.72
2022-09-10T09:42:21.388Z,100347.91
2022-09-10T09:45:02.930Z,100349.16
2022-09-10T09:47:29.502Z,100341.59
2022-09-10T09:49:56.209Z,100344.03
2022-09-10T09:52:24.782Z,100336.59
2022-09-10T09:55:15.700Z,100333.25
2022-09-10T09:57:42.730Z,100333.47
2022-09-10T10:00:35.985Z,100329.13
2022-09-10T10:03:26.289Z,100334.72
2022-09-10T10:06:02.292Z,100322.00
2022-09-10T10:08:33.514Z,100326.22
2022-09-10T10:11:00.504Z,100326.78
2022-09-10T10:13:45.549Z,100322.59
2022-09-10T10:16:33.652Z,100318.81
2022-09-10T10:19:00.054Z,100317.78
2022-09-10T10:21:33.008Z,100325.59
2022-09-10T10:23:59.461Z,100315.13
2022-09-10T10:26:36.041Z,100311.56
2022-09-10T10:29:06.213Z,100309.44
2022-09-10T10:31:44.412Z,100312.03
2022-09-10T10:34:16.756Z,100316.25
2022-09-10T10:37:03.473Z,100317.84
2022-09-10T10:40:01.282Z,100316.41
2022-09-10T10:42:53.831Z,100318.97
2022-09-10T10:45:26.249Z,100309.53
2022-09-10T10:48:20.479Z,100311.78
2022-09-10T10:50:53.130Z,100320.19
2022-09-10T10:53:52.015Z,100325.03
2022-09-10T10:56:32.391Z,100320.50
2022-09-10T10:59:23.487Z,100324.03
2022-09-10T11:02:16.053Z,100316.13
2022-09-10T11:04:54.539Z,100316.16
2022-09-10T11:07:34.836Z,100317.69
2022-09-10T11:10:14.926Z,100317.44
2022-09-10T11:13:03.077Z,100321.44
2022-09-10T11:15:44.837Z,100318.22
2022-09-10T11:18:21.141Z,100321.03
2022-09-10T11:21:20.366Z,100321.44
2022-09-10T11:23:56.178Z,100321.13
2022-09-10T11:26:43.694Z,100313.19
2022-09-10T11:29:28.940Z,100311.03
2022-09-10T11:32:22.363Z,100315.22
2022-09-10T11:35:12.616Z,100321.25
2022-09-10T11:37:43.226Z,100309.63
2022-09-10T11:40:35.127Z,100309.47
2022-09-10T11:43:19.627Z,100310.31
2022-09-10T11:45:54.675Z,100313.31
2022-09-10T11:48:33.036Z,100306.75
2022-09-10T11:51:07.650Z,100305.19
2022-09-10T11:53:36.927Z,100311.06
2022-09-10T11:56:09.084Z,100308.19
2022-09-10T11:58:59.923Z,100304.13
2022-09-10T12:01:49.287Z,100301.06
2022-09-10T12:04:40.470Z,100294.97
2022-09-10T12:07:15.396Z,100299.44
2022-09-10T12:10:18.383Z,100307.00
2022-09-10T12:12:50.245Z,100304.06
2022-09-10T12:15:27.267Z,100306.78
2022-09-10T12:18:02.062Z,100311.06
2022-09-10T12:20:33.115Z,100312.91
2022-09-10T12:23:00.160Z,100312.31
2022-09-10T12:25:34.150Z,100305.75
2022-09-10T12:28:05.197Z,100309.19
2022-09-10T12:30:33.248Z,100308.16
2022-09-10T12:33:02.541Z,100303.97
2022-09-10T12:35:31.855Z,100305.34
2022-09-10T12:38:35.783Z,100308.81
2022-09-10T12:41:04.415Z,100307.78
2022-09-10T12:43:40.127Z,100307.97
2022-09-10T12:46:06.720Z,100305.91
2022-09-10T12:48:35.996Z,100301.69
2022-09-10T12:51:24.919Z,100297.16
2022-09-10T12:54:27.668Z,100293.19
2022-09-10T12:57:23.563Z,100296.50
2022-09-10T13:00:14.254Z,100298.69
2022-09-10T13:02:58.208Z,100291.56
2022-09-10T13:05:30.292Z,100295.81
2022-09-10T13:08:11.820Z,100302.50
2022-09-10T13:10:40.681Z,100299.63
2022-09-10T13:13:34.178Z,100295.69
2022-09-10T13:16:02.015Z,100296.06
2022-09-10T13:18:36.637Z,100292.03
2022-09-10T13:21:29.127Z,100294.22
2022-09-10T13:23:57.225Z,100289.97
2022-09-10T13:26:38.209Z,100283.63
2022-09-10T13:29:39.563Z,100290.25
2022-09-10T13:32:14.096Z,100291.13
2022-09-10T13:34:59.142Z,100290.16
2022-09-10T13:37:59.962Z,100295.47
2022-09-10T13:40:56.083Z,100296.41
2022-09-10T13:43:44.496Z,100294.44
2022-09-10T13:46:20.339Z,100292.13
2022-09-10T13:48:56.062Z,100293.72
2022-09-10T13:51:25.523Z,100288.97
2022-09-10T13:53:53.327Z,100292.88
2022-09-10T13:56:25.534Z,100300.56
2022-09-10T13:58:56.107Z,100291.44
2022-09-10T14:01:55.828Z,100298.66
2022-09-10T14:04:44.783Z,100299.88
2022-09-10T14:07:14.430Z,100293.44
2022-09-10T14:09:50.293Z,100288.31
2022-09-10T14:12:20.784Z,100284.09
2022-09-10T14:14:52.606Z,100283.81
2022-09-10T14:17:35.222Z,100282.97
2022-09-10T14:20:07.928Z,100291.63
2022-09-10T14:22:37.634Z,100292.03
2022-09-10T14:25:05.320Z,100291.06
2022-09-10T14:27:34.880Z,100289.13
2022-09-10T14:30:23.056Z,100289.34
2022-09-10T14:32:50.922Z,100293.66
2022-09-10T14:35:46.228Z,100290.53
2022-09-10T14:38:36.118Z,100286.28
2022-09-10T14:41:17.313Z,100291.13
2022-09-10T14:43:43.747Z,100293.22
2022-09-10T14:46:32.304Z,100290.28
2022-09-10T14:48:58.698Z,100288.25
2022-09-10T14:51:25.565Z,100284.34
2022-09-10T14:53:57.023Z,100280.63
2022-09-10T14:56:26.378Z,100284.13
2022-09-10T14:59:01.610Z,100280.88
2022-09-10T15:01:29.236Z,100289.28
2022-09-10T15:03:56.058Z,100291.84
2022-09-10T15:06:26.590Z,100290.22
2022-09-10T15:08:55.852Z,100285.13
2022-09-10T15:11:24.950Z,100286.84
2022-09-10T15:13:52.584Z,100285.13
2022-09-10T15:16:19.070Z,100285.38
2022-09-10T15:18:45.522Z,100288.69
2022-09-10T15:21:15.176Z,100286.75
2022-09-10T15:23:42.173Z,100288.41
2022-09-10T15:26:12.882Z,100286.31
2022-09-10T15:28:39.786Z,100288.16
2022-09-10T15:31:06.684Z,100289.38
2022-09-10T15:33:33.553Z,100290.00
2022-09-10T15:36:00.091Z,100285.84
2022-09-10T15:38:26.662Z,100282.44
2022-09-10T15:41:05.585Z,100286.47
2022-09-10T15:43:37.550Z,100285.66
2022-09-10T15:46:04.191Z,100290.25
2022-09-10T15:48:33.379Z,100283.69
2022-09-10T15:51:02.818Z,100281.69
2022-09-10T15:53:32.050Z,100277.31
2022-09-10T15:56:07.237Z,100287.94
2022-09-10T15:58:35.329Z,100283.78
2022-09-10T16:01:15.027Z,100279.84
2022-09-10T16:04:03.808Z,100278.56
2022-09-10T16:06:39.183Z,100282.72
2022-09-10T16:09:09.047Z,100281.47
2022-09-10T16:11:37.710Z,100275.16
2022-09-10T16:14:09.545Z,100277.69
2022-09-10T16:16:37.191Z,100279.75
2022-09-10T16:19:04.443Z,100280.13
2022-09-10T16:21:32.768Z,100277.56
2022-09-10T16:24:00.937Z,100286.31
2022-09-10T16:26:34.463Z,100296.84
2022-09-10T16:29:03.419Z,100301.16
2022-09-10T16:31:35.282Z,100301.31
2022-09-10T16:34:04.579Z,100298.69
2022-09-10T16:36:36.944Z,100308.03
2022-09-10T16:39:06.099Z,100307.91
2022-09-10T16:41:35.310Z,100309.59
2022-09-10T16:44:01.954Z,100315.13
2022-09-10T16:46:28.789Z,100315.38
2022-09-10T16:48:56.815Z,100321.66
2022-09-10T16:51:24.930Z,100324.56
2022-09-10T16:54:05.762Z,100327.75
2022-09-10T16:56:43.908Z,100328.84
2022-09-10T16:59:14.822Z,100326.09
2022-09-10T17:01:43.005Z,100329.50
2022-09-10T17:04:18.053Z,100333.25
2022-09-10T17:06:46.191Z,100322.56
2022-09-10T17:09:13.954Z,100330.31
2022-09-10T17:11:40.461Z,100328.47
2022-09-10T17:14:08.179Z,100333.19
2022-09-10T17:16:37.656Z,100325.03
2022-09-10T17:19:15.064Z,100333.09
2022-09-10T17:21:44.203Z,100325.78
2022-09-10T17:24:12.664Z,100329.84
2022-09-10T17:26:40.312Z,100337.47
2022-09-10T17:29:12.662Z,100332.88
2022-09-10T17:31:39.563Z,100333.22
2022-09-10T17:34:06.804Z,100330.69
2022-09-10T17:36:34.777Z,100337.94
2022-09-10T17:39:01.179Z,100338.97
2022-09-10T17:41:28.999Z,100344.72
2022-09-10T17:43:57.634Z,100341.00
2022-09-10T17:46:24.308Z,100348.13
2022-09-10T17:48:51.417Z,100347.16
2022-09-10T17:51:21.310Z,100350.16
2022-09-10T17:53:47.750Z,100354.56
2022-09-10T17:56:16.876Z,100354.38
2022-09-10T17:58:43.350Z,100351.88
2022-09-10T18:01:23.474Z,100352.91
2022-09-10T18:03:50.926Z,100362.75
2022-09-10T18:06:17.407Z,100357.69
2022-09-10T18:08:43.962Z,100361.25
2022-09-10T18:11:16.438Z,100359.38
2022-09-10T18:13:44.444Z,100367.78
2022-09-10T18:16:14.659Z,100370.66
2022-09-10T18:18:41.142Z,100367.63
2022-09-10T18:21:24.029Z,100377.13
2022-09-10T18:24:01.631Z,100378.09
2022-09-10T18:26:34.515Z,100378.78
2022-09-10T18:29:07.699Z,100383.50
2022-09-10T18:31:36.826Z,100380.63
2022-09-10T18:34:05.173Z,100385.69
2022-09-10T18:36:31.689Z,100384.66
2022-09-10T18:39:02.097Z,100386.91
2022-09-10T18:41:31.140Z,100388.91
2022-09-10T18:44:00.663Z,100393.59
2022-09-10T18:46:28.989Z,100389.41
2022-09-10T18:48:56.304Z,100402.22
2022-09-10T18:51:24.687Z,100405.25
2022-09-10T18:53:59.917Z,100412.31
2022-09-10T18:56:29.864Z,100409.28
2022-09-10T18:59:04.590Z,100416.38
2022-09-10T19:01:31.736Z,100407.78
2022-09-10T19:03:58.797Z,100417.19
2022-09-10T19:06:28.805Z,100423.47
2022-09-10T19:08:57.799Z,100426.38
2022-09-10T19:11:33.175Z,100437.16
2022-09-10T19:14:01.671Z,100433.06
2022-09-10T19:16:33.088Z,100433.97
2022-09-10T19:19:05.383Z,100442.78
2022-09-10T19:21:35.200Z,100431.44
2022-09-10T19:24:02.388Z,100440.06
2022-09-10T19:26:32.149Z,100437.53
2022-09-10T19:29:00.249Z,100436.00
2022-09-10T19:31:28.476Z,100434.47
2022-09-10T19:34:05.908Z,100438.38
2022-09-10T19:36:35.317Z,100443.44
2022-09-10T19:39:06.760Z,100436.31
2022-09-10T19:41:35.277Z,100437.63
2022-09-10T19:44:02.466Z,100431.03
2022-09-10T19:46:30.187Z,100433.66
2022-09-10T19:48:59.382Z,100443.09
2022-09-10T19:51:31.174Z,100441.53
2022-09-10T19:54:02.163Z,100448.47
2022-09-10T19:56:34.662Z,100444.78
2022-09-10T19:59:02.572Z,100445.59
2022-09-10T20:01:32.451Z,100449.53
2022-09-10T20:04:04.934Z,100451.69
2022-09-10T20:06:32.955Z,100447.97
2022-09-10T20:08:59.604Z,100447.78
2022-09-10T20:11:29.886Z,100449.03
2022-09-10T20:13:59.428Z,100440.03
2022-09-10T20:16:26.205Z,100451.22
2022-09-10T20:18:53.149Z,100446.97
2022-09-10T20:21:25.382Z,100443.25
2022-09-10T20:23:55.469Z,100451.22
2022-09-10T20:26:28.861Z,100449.19
2022-09-10T20:29:04.065Z,100450.03
2022-09-10T20:31:32.526Z,100453.41
2022-09-10T20:34:01.143Z,100458.91
2022-09-10T20:36:28.523Z,100457.78
2022-09-10T20:38:56.143Z,100451.84
2022-09-10T20:41:23.454Z,100446.16
2022-09-10T20:43:53.564Z,100447.78
2022-09-10T20:46:22.428Z,100441.06
2022-09-10T20:48:50.885Z,100441.69
2022-09-10T20:51:18.694Z,100443.06
2022-09-10T20:53:45.561Z,100450.47
2022-09-10T20:56:15.245Z,100453.50
2022-09-10T20:58:42.079Z,100450.91
2022-09-10T21:01:10.908Z,100449.66
2022-09-10T21:03:38.086Z,100450.72
2022-09-10T21:06:04.812Z,100456.47
2022-09-10T21:08:31.693Z,100458.94
2022-09-10T21:11:05.689Z,100452.22
2022-09-10T21:13:36.216Z,100454.91
2022-09-10T21:16:12.249Z,100458.53
2022-09-10T21:18:41.679Z,100456.91
2022-09-10T21:21:12.619Z,100463.94
2022-09-10T21:23:43.998Z,100468.00
2022-09-10T21:26:11.973Z,100471.16
2022-09-10T21:28:39.217Z,100462.25
2022-09-10T21:31:07.200Z,100474.34
2022-09-10T21:33:34.559Z,100467.44
2022-09-10T21:36:11.237Z,100466.25
2022-09-10T21:38:38.367Z,100471.69
2022-09-10T21:41:06.506Z,100467.25
2022-09-10T21:43:34.754Z,100466.59
2022-09-10T21:46:02.160Z,100470.84
2022-09-10T21:48:30.103Z,100466.78
2022-09-10T21:51:00.579Z,100479.44
2022-09-10T21:53:27.763Z,100480.34
2022-09-10T21:55:55.908Z,100477.41
2022-09-10T21:58:23.501Z,100478.44
2022-09-10T22:00:50.178Z,100479.88
2022-09-10T22:03:16.981Z,100481.56
2022-09-10T22:05:43.422Z,100486.28
2022-09-10T22:08:09.816Z,100491.81
2022-09-10T22:10:41.215Z,100486.75
2022-09-10T22:13:08.438Z,100495.44
2022-09-10T22:15:42.480Z,100502.69
2022-09-10T22:18:09.410Z,100505.06
2022-09-10T22:20:36.572Z,100507.09
2022-09-10T22:23:03.994Z,100498.13
2022-09-10T22:25:31.129Z,100502.56
2022-09-10T22:28:00.556Z,100505.66
2022-09-10T22:30:30.314Z,100504.75
2022-09-10T22:32:57.608Z,100506.28
2022-09-10T22:35:25.790Z,100498.75
2022-09-10T22:37:56.449Z,100510.25
2022-09-10T22:40:24.386Z,100505.44
2022-09-10T22:42:51.628Z,100502.84
2022-09-10T22:45:20.905Z,100512.88
2022-09-10T22:47:50.506Z,100511.53
2022-09-10T22:50:16.997Z,100516.47
2022-09-10T22:52:44.244Z,100525.56
2022-09-10T22:55:10.689Z,100526.56
2022-09-10T22:57:39.467Z,100538.38
2022-09-10T23:00:06.671Z,100522.44
2022-09-10T23:02:33.064Z,100526.31
2022-09-10T23:04:59.936Z,100531.56
2022-09-10T23:07:26.325Z,100542.78
2022-09-10T23:09:52.701Z,100547.03
2022-09-10T23:12:21.223Z,100546.75
2022-09-10T23:14:47.629Z,100548.56
2022-09-10T23:17:16.064Z,100549.69
2022-09-10T23:19:44.925Z,100546.72
2022-09-10T23:22:11.425Z,100549.69
2022-09-10T23:24:38.031Z,100552.78
2022-09-10T23:27:04.719Z,100552.53
2022-09-10T23:29:31.728Z,100557.91
2022-09-10T23:31:58.133Z,100556.81
2022-09-10T23:34:24.512Z,100564.13
2022-09-10T23:36:52.263Z,100566.66
2022-09-10T23:39:20.775Z,100564.56
2022-09-10T23:41:48.239Z,100568.94
2022-09-10T23:44:14.875Z,100584.56
2022-09-10T23:46:41.315Z,100583.56
2022-09-10T23:49:08.574Z,100582.47
2022-09-10T23:51:35.219Z,100582.06
2022-09-10T23:54:01.619Z,100583.31
2022-09-10T23:56:28.950Z,100584.50
2022-09-10T23:58:59.202Z,100583.91
